This is the latest recevied weather packets stored in our database for station/object SR6WXJG. If no packets are shown the sender has not sent any weather packets the latest 10 day(s).
| Time | Temp. | Humidity | Pressure | Rain* | Wind** | Luminosity | Snow |
|---|---|---|---|---|---|---|---|
| 1777194935 | 10° C | 55% | 1024 hPa | 0 mm | - | - | - |
| 1777194035 | 10° C | 55% | 1024 hPa | 0 mm | - | - | - |
| 1777193134 | 10° C | 55% | 1024 hPa | 0 mm | - | - | - |
| 1777192234 | 10° C | 56% | 1024 hPa | 0 mm | - | - | - |
| 1777191334 | 8.89° C | 61% | 1024 hPa | 0 mm | - | - | - |
| 1777190433 | 8.89° C | 61% | 1024 hPa | 0 mm | - | - | - |
| 1777189533 | 8.33° C | 61% | 1024 hPa | 0 mm | - | - | - |
| 1777188633 | 8.33° C | 62% | 1024 hPa | 0 mm | - | - | - |
| 1777187732 | 7.78° C | 65% | 1024 hPa | 0 mm | - | - | - |
| 1777186832 | 7.78° C | 65% | 1024 hPa | 0 mm | - | - | - |
| 1777185932 | 7.78° C | 65% | 1024 hPa | 0 mm | - | - | - |
| 1777185031 | 7.78° C | 65% | 1024 hPa | 0 mm | - | - | - |
| 1777184131 | 6.67° C | 65% | 1023 hPa | 0 mm | - | - | - |
| 1777183231 | 6.11° C | 67% | 1023 hPa | 0 mm | - | - | - |
| 1777182330 | 6.11° C | 68% | 1023 hPa | 0 mm | - | - | - |
| 1777181430 | 6.11° C | 68% | 1023 hPa | 0 mm | - | - | - |
| 1777180530 | 5.56° C | 67% | 1022 hPa | 0 mm | - | - | - |
| 1777179629 | 5° C | 72% | 1022 hPa | 0 mm | - | - | - |
| 1777178729 | 5° C | 72% | 1022 hPa | 0 mm | - | - | - |
| 1777177829 | 5° C | 72% | 1022 hPa | 0 mm | - | - | - |
| 1777176928 | 5.56° C | 68% | 1020 hPa | 0 mm | - | - | - |
| 1777176028 | 5° C | 73% | 1021 hPa | 0 mm | - | - | - |
| 1777175128 | 5° C | 73% | 1021 hPa | 0 mm | - | - | - |
| 1777174227 | 5° C | 72% | 1021 hPa | 0 mm | - | - | - |
| 1777173327 | 6.11° C | 66% | 1019 hPa | 0 mm | - | - | - |
* Rain latest hour (hover to see other rain measurements)
** Current wind speed in m/s (hover to see current wind gust speed)